createdAt,value
2023-05-06T00:00:01.573Z,8.89
2023-05-06T00:01:07.955Z,8.88
2023-05-06T00:02:11.644Z,8.86
2023-05-06T00:03:14.824Z,8.84
2023-05-06T00:04:18.657Z,8.84
2023-05-06T00:05:22.985Z,8.80
2023-05-06T00:06:27.688Z,8.83
2023-05-06T00:07:30.825Z,8.80
2023-05-06T00:08:34.462Z,8.78
2023-05-06T00:09:36.861Z,8.75
2023-05-06T00:10:40.655Z,8.71
2023-05-06T00:11:43.430Z,8.71
2023-05-06T00:12:47.484Z,8.66
2023-05-06T00:13:50.306Z,8.65
2023-05-06T00:14:53.941Z,8.66
2023-05-06T00:15:56.754Z,8.64
2023-05-06T00:17:00.417Z,8.65
2023-05-06T00:18:03.429Z,8.65
2023-05-06T00:19:07.684Z,8.60
2023-05-06T00:20:11.238Z,8.60
2023-05-06T00:21:16.560Z,8.61
2023-05-06T00:22:19.198Z,8.53
2023-05-06T00:23:22.950Z,8.54
2023-05-06T00:24:25.704Z,8.53
2023-05-06T00:25:29.390Z,8.55
2023-05-06T00:26:32.273Z,8.57
2023-05-06T00:27:36.096Z,8.54
2023-05-06T00:28:38.773Z,8.49
2023-05-06T00:29:42.445Z,8.48
2023-05-06T00:30:45.098Z,8.49
2023-05-06T00:31:50.268Z,8.48
2023-05-06T00:32:53.148Z,8.48
2023-05-06T00:33:56.979Z,8.43
2023-05-06T00:34:59.597Z,8.37
2023-05-06T00:36:03.235Z,8.41
2023-05-06T00:37:07.543Z,8.39
2023-05-06T00:38:13.542Z,8.37
2023-05-06T00:39:16.711Z,8.35
2023-05-06T00:40:20.349Z,8.20
2023-05-06T00:41:23.360Z,8.17
2023-05-06T00:42:27.231Z,8.16
2023-05-06T00:43:29.927Z,8.10
2023-05-06T00:44:33.701Z,8.05
2023-05-06T00:45:37.061Z,8.04
2023-05-06T00:46:41.878Z,8.04
2023-05-06T00:47:45.273Z,7.87
2023-05-06T00:48:49.052Z,7.98
2023-05-06T00:49:52.029Z,7.97
2023-05-06T00:50:55.978Z,7.94
2023-05-06T00:51:59.775Z,7.92
2023-05-06T00:53:05.718Z,7.96
2023-05-06T00:54:08.530Z,7.92
2023-05-06T00:55:12.366Z,7.94
2023-05-06T00:56:15.826Z,7.94
2023-05-06T00:57:19.767Z,7.89
2023-05-06T00:58:22.850Z,7.85
2023-05-06T00:59:26.630Z,7.81
2023-05-06T01:00:29.362Z,7.82
2023-05-06T01:01:33.567Z,7.79
2023-05-06T01:02:46.558Z,7.80
2023-05-06T01:03:52.359Z,7.79
2023-05-06T01:04:55.891Z,7.77
2023-05-06T01:06:09.200Z,7.74
2023-05-06T01:07:23.817Z,7.76
2023-05-06T01:08:34.346Z,7.73
2023-05-06T01:09:43.104Z,7.71
2023-05-06T01:10:52.539Z,7.68
2023-05-06T01:12:02.785Z,7.67
2023-05-06T01:13:13.837Z,7.62
2023-05-06T01:14:26.726Z,7.63
2023-05-06T01:15:36.042Z,7.57
2023-05-06T01:16:41.738Z,7.52
2023-05-06T01:17:47.475Z,7.51
2023-05-06T01:18:51.952Z,7.50
2023-05-06T01:20:00.214Z,7.44
2023-05-06T01:21:05.512Z,7.34
2023-05-06T01:22:09.849Z,7.35
2023-05-06T01:23:15.101Z,7.36
2023-05-06T01:24:19.169Z,7.27
2023-05-06T01:25:24.172Z,7.33
2023-05-06T01:26:28.568Z,7.29
2023-05-06T01:27:31.239Z,7.33
2023-05-06T01:28:34.823Z,7.31
2023-05-06T01:29:37.872Z,7.30
2023-05-06T01:30:48.672Z,7.28
2023-05-06T01:31:52.927Z,7.25
2023-05-06T01:33:05.742Z,7.24
2023-05-06T01:34:14.672Z,7.24
2023-05-06T01:35:22.784Z,7.19
2023-05-06T01:36:33.582Z,7.18
2023-05-06T01:37:43.647Z,7.13
2023-05-06T01:38:53.549Z,7.10
2023-05-06T01:40:01.643Z,7.07
2023-05-06T01:41:08.611Z,7.01
2023-05-06T01:42:15.673Z,7.04
2023-05-06T01:43:19.994Z,7.03
2023-05-06T01:44:24.695Z,6.97
2023-05-06T01:45:31.093Z,6.93
2023-05-06T01:46:35.524Z,6.98
2023-05-06T01:47:39.936Z,7.02
2023-05-06T01:48:46.965Z,6.93
2023-05-06T01:49:49.956Z,6.93
2023-05-06T01:50:53.820Z,6.92
2023-05-06T01:51:56.797Z,6.92
2023-05-06T01:53:01.219Z,6.78
2023-05-06T01:54:06.241Z,6.89
2023-05-06T01:55:10.758Z,6.83
2023-05-06T01:56:14.000Z,6.81
2023-05-06T01:57:17.715Z,6.80
2023-05-06T01:58:20.840Z,6.78
2023-05-06T01:59:24.409Z,6.74
2023-05-06T02:00:26.962Z,6.71
2023-05-06T02:01:30.874Z,6.66
2023-05-06T02:02:33.680Z,6.71
2023-05-06T02:03:37.814Z,6.64
2023-05-06T02:04:40.628Z,6.60
2023-05-06T02:05:44.446Z,6.63
2023-05-06T02:06:47.205Z,6.59
2023-05-06T02:07:50.869Z,6.54
2023-05-06T02:08:53.290Z,6.50
2023-05-06T02:09:58.101Z,6.46
2023-05-06T02:11:01.174Z,6.47
2023-05-06T02:12:05.336Z,6.41
2023-05-06T02:13:08.530Z,6.42
2023-05-06T02:14:12.415Z,6.41
2023-05-06T02:15:14.625Z,6.40
2023-05-06T02:16:18.417Z,6.39
2023-05-06T02:17:21.207Z,6.38
2023-05-06T02:18:25.636Z,6.36
2023-05-06T02:19:28.603Z,6.32
2023-05-06T02:20:32.229Z,6.32
2023-05-06T02:21:54.721Z,6.17
2023-05-06T02:22:58.308Z,6.33
2023-05-06T02:24:00.889Z,6.33
2023-05-06T02:25:06.824Z,6.36
2023-05-06T02:26:09.430Z,6.39
2023-05-06T02:27:13.180Z,6.36
2023-05-06T02:28:15.799Z,6.34
2023-05-06T02:29:19.789Z,6.35
2023-05-06T02:30:22.251Z,6.31
2023-05-06T02:31:26.015Z,6.24
2023-05-06T02:32:28.828Z,6.27
2023-05-06T02:33:32.520Z,6.18
2023-05-06T02:34:35.206Z,6.24
2023-05-06T02:35:38.860Z,6.22
2023-05-06T02:36:41.022Z,6.21
2023-05-06T02:37:44.576Z,6.05
2023-05-06T02:38:46.861Z,6.23
2023-05-06T02:39:51.023Z,6.22
2023-05-06T02:40:55.209Z,6.24
2023-05-06T02:41:58.826Z,6.18
2023-05-06T02:43:01.741Z,6.16
2023-05-06T02:44:05.587Z,6.12
2023-05-06T02:45:09.684Z,6.19
2023-05-06T02:46:14.269Z,6.19
2023-05-06T02:47:16.938Z,6.16
2023-05-06T02:48:20.689Z,6.16
2023-05-06T02:49:23.366Z,6.13
2023-05-06T02:50:26.943Z,6.12
2023-05-06T02:51:29.248Z,6.10
2023-05-06T02:52:33.578Z,6.04
2023-05-06T02:53:36.252Z,6.06
2023-05-06T02:54:39.907Z,6.05
2023-05-06T02:55:42.145Z,6.02
2023-05-06T02:56:47.333Z,5.90
2023-05-06T02:57:50.055Z,6.07
2023-05-06T02:58:54.717Z,6.06
2023-05-06T02:59:57.519Z,6.06
2023-05-06T03:01:01.194Z,6.07
2023-05-06T03:02:03.980Z,6.02
2023-05-06T03:03:07.867Z,6.04
2023-05-06T03:04:10.670Z,6.05
2023-05-06T03:05:14.348Z,6.01
2023-05-06T03:06:17.190Z,5.98
2023-05-06T03:07:20.874Z,5.95
2023-05-06T03:08:23.496Z,6.00
2023-05-06T03:09:27.180Z,5.95
2023-05-06T03:10:30.056Z,6.01
2023-05-06T03:11:34.210Z,6.02
2023-05-06T03:12:38.713Z,6.02
2023-05-06T03:13:42.338Z,5.98
2023-05-06T03:14:44.663Z,5.97
2023-05-06T03:15:54.567Z,5.96
2023-05-06T03:16:57.469Z,5.97
2023-05-06T03:18:01.299Z,5.91
2023-05-06T03:19:04.160Z,5.90
2023-05-06T03:20:09.972Z,5.88
2023-05-06T03:21:13.027Z,5.88
2023-05-06T03:22:16.871Z,5.86
2023-05-06T03:23:19.880Z,5.88
2023-05-06T03:24:23.538Z,5.85
2023-05-06T03:25:25.891Z,5.86
2023-05-06T03:26:29.665Z,5.85
2023-05-06T03:27:32.313Z,5.81
2023-05-06T03:28:37.445Z,5.77
2023-05-06T03:29:40.067Z,5.80
2023-05-06T03:30:43.649Z,5.82
2023-05-06T03:31:46.004Z,5.83
2023-05-06T03:32:50.111Z,5.81
2023-05-06T03:33:53.010Z,5.81
2023-05-06T03:34:56.679Z,5.77
2023-05-06T03:35:59.564Z,5.80
2023-05-06T03:37:03.509Z,5.65
2023-05-06T03:38:06.340Z,5.78
2023-05-06T03:39:10.619Z,5.72
2023-05-06T03:40:13.603Z,5.73
2023-05-06T03:41:18.296Z,5.68
2023-05-06T03:42:20.962Z,5.67
2023-05-06T03:43:24.531Z,5.60
2023-05-06T03:44:28.493Z,5.53
2023-05-06T03:45:32.188Z,5.47
2023-05-06T03:46:34.974Z,5.33
2023-05-06T03:47:38.819Z,5.33
2023-05-06T03:48:41.585Z,5.25
2023-05-06T03:49:45.554Z,5.16
2023-05-06T03:50:48.277Z,5.16
2023-05-06T03:51:53.571Z,5.14
2023-05-06T03:52:56.440Z,5.06
2023-05-06T03:54:00.360Z,5.07
2023-05-06T03:55:03.619Z,4.99
2023-05-06T03:56:08.196Z,4.78
2023-05-06T03:57:10.948Z,4.88
2023-05-06T03:58:14.794Z,4.65
2023-05-06T03:59:17.771Z,4.66
2023-05-06T04:00:24.037Z,4.66
2023-05-06T04:01:26.798Z,-142.96
2023-05-06T04:02:30.842Z,-142.96
2023-05-06T04:03:33.886Z,-142.96
2023-05-06T04:04:37.712Z,-142.96
2023-05-06T04:05:40.677Z,-142.96
2023-05-06T04:06:45.110Z,-142.96
2023-05-06T04:07:47.828Z,-142.96
2023-05-06T04:09:50.081Z,-142.96
2023-05-06T04:11:16.793Z,-142.96
2023-05-06T04:13:19.920Z,-142.96
2023-05-06T04:15:23.532Z,-142.96
2023-05-06T04:16:46.376Z,-142.96
2023-05-06T04:18:49.674Z,-142.96
2023-05-06T04:20:52.372Z,-142.96
2023-05-06T04:22:54.952Z,-142.96
2023-05-06T04:24:57.894Z,-142.96
2023-05-06T04:27:00.184Z,-142.96
2023-05-06T04:29:02.525Z,-142.96
2023-05-06T04:31:08.878Z,-142.96
2023-05-06T04:33:11.321Z,-142.96
2023-05-06T04:35:13.781Z,-142.96
2023-05-06T04:37:16.381Z,-142.96
2023-05-06T04:39:18.579Z,-142.96
2023-05-06T04:41:22.413Z,-142.96
2023-05-06T04:43:24.925Z,-142.96
2023-05-06T04:45:27.616Z,-142.96
2023-05-06T04:47:32.398Z,-142.96
2023-05-06T04:49:35.253Z,-142.96
2023-05-06T04:51:37.496Z,-142.96
2023-05-06T04:53:41.207Z,-142.96
2023-05-06T04:55:43.787Z,-142.96
2023-05-06T04:57:46.174Z,-142.96
2023-05-06T04:59:48.631Z,-142.96
2023-05-06T05:01:52.316Z,-142.96
2023-05-06T05:03:55.031Z,-142.96
2023-05-06T05:05:57.360Z,-142.96
2023-05-06T05:07:59.729Z,-142.96
2023-05-06T05:10:01.934Z,-142.96
2023-05-06T05:12:07.041Z,-142.96
2023-05-06T05:14:09.399Z,-142.96
2023-05-06T05:16:11.932Z,-142.96
2023-05-06T05:18:15.654Z,-142.96
2023-05-06T05:20:18.213Z,-142.96
2023-05-06T05:22:20.415Z,-142.96
2023-05-06T05:24:22.682Z,-142.96
2023-05-06T05:26:24.906Z,-142.96
2023-05-06T05:28:27.219Z,-142.96
2023-05-06T05:30:29.495Z,-142.96
2023-05-06T05:32:33.248Z,-142.96
2023-05-06T05:34:35.593Z,-142.96
2023-05-06T05:36:37.993Z,-142.96
2023-05-06T05:38:40.970Z,-142.96
2023-05-06T05:40:43.541Z,-142.96
2023-05-06T05:42:46.264Z,-142.96
2023-05-06T05:44:48.539Z,-142.96
2023-05-06T05:46:51.342Z,-142.96
2023-05-06T05:48:55.308Z,-142.96
2023-05-06T05:50:57.897Z,-142.96
2023-05-06T05:53:00.256Z,-142.96
2023-05-06T05:55:02.559Z,-142.96
2023-05-06T05:57:07.152Z,-142.96
2023-05-06T05:59:10.299Z,-142.96
2023-05-06T06:01:13.326Z,-142.96
2023-05-06T06:03:17.125Z,-142.96
2023-05-06T06:05:19.492Z,-142.96
2023-05-06T06:07:21.912Z,-142.96
2023-05-06T06:09:24.199Z,-142.96
2023-05-06T06:11:27.176Z,-142.96
2023-05-06T06:13:30.048Z,-142.96
2023-05-06T06:15:32.596Z,-142.96
2023-05-06T06:17:35.134Z,-142.96
2023-05-06T06:19:38.930Z,-142.96
2023-05-06T06:21:41.354Z,-142.96
2023-05-06T06:23:43.662Z,-142.96
2023-05-06T06:25:46.222Z,-142.96
2023-05-06T06:27:48.608Z,-142.96
2023-05-06T06:29:51.613Z,-142.96
2023-05-06T06:31:56.205Z,-142.96
2023-05-06T06:34:00.008Z,-142.96
2023-05-06T06:36:02.562Z,-142.96
2023-05-06T06:38:05.057Z,-142.96
2023-05-06T06:40:08.057Z,-142.96
2023-05-06T06:50:51.032Z,14.25
2023-05-06T06:53:31.469Z,15.17
2023-05-06T06:54:34.198Z,13.68
2023-05-06T06:55:37.907Z,12.88
2023-05-06T06:56:40.833Z,11.55
2023-05-06T06:57:44.431Z,10.47
2023-05-06T06:58:46.954Z,9.18
2023-05-06T06:59:52.670Z,8.76
2023-05-06T07:00:55.278Z,8.10
2023-05-06T07:01:59.176Z,7.83
2023-05-06T07:03:01.860Z,7.39
2023-05-06T07:04:07.250Z,6.96
2023-05-06T07:05:10.696Z,6.68
2023-05-06T07:06:15.000Z,6.28
2023-05-06T07:07:17.629Z,6.05
2023-05-06T07:08:22.543Z,5.77
2023-05-06T07:09:27.003Z,5.63
2023-05-06T07:10:30.926Z,5.51
2023-05-06T07:11:33.731Z,5.50
2023-05-06T07:12:37.954Z,5.44
2023-05-06T07:13:40.661Z,5.30
2023-05-06T07:14:44.620Z,5.16
2023-05-06T07:15:47.337Z,5.14
2023-05-06T07:16:51.751Z,5.11
2023-05-06T07:17:54.716Z,5.03
2023-05-06T07:18:58.501Z,5.01
2023-05-06T07:20:01.120Z,4.94
2023-05-06T07:21:04.871Z,4.95
2023-05-06T07:22:07.452Z,4.87
2023-05-06T07:23:11.114Z,4.81
2023-05-06T07:24:13.437Z,4.82
2023-05-06T07:25:18.732Z,4.87
2023-05-06T07:26:21.846Z,4.91
2023-05-06T07:27:27.529Z,4.93
2023-05-06T07:28:31.766Z,4.91
2023-05-06T07:29:35.916Z,4.89
2023-05-06T07:30:40.076Z,4.83
2023-05-06T07:31:42.683Z,4.86
2023-05-06T07:32:46.564Z,4.88
2023-05-06T07:33:49.190Z,4.90
2023-05-06T07:34:52.964Z,4.86
2023-05-06T07:35:55.246Z,4.89
2023-05-06T07:36:58.843Z,4.91
2023-05-06T07:38:02.283Z,4.88
2023-05-06T07:39:05.033Z,4.89
2023-05-06T07:40:09.786Z,4.90
2023-05-06T07:41:13.744Z,4.91
2023-05-06T07:42:17.671Z,4.93
2023-05-06T07:43:20.255Z,4.93
2023-05-06T07:44:24.016Z,4.88
2023-05-06T07:45:27.871Z,4.91
2023-05-06T07:46:30.807Z,4.96
2023-05-06T07:47:35.288Z,4.97
2023-05-06T07:48:38.092Z,5.06
2023-05-06T07:49:41.796Z,5.05
2023-05-06T07:50:45.549Z,5.02
2023-05-06T07:51:48.119Z,5.08
2023-05-06T07:52:52.000Z,5.05
2023-05-06T07:53:54.575Z,5.13
2023-05-06T07:54:58.473Z,5.13
2023-05-06T07:56:02.891Z,5.10
2023-05-06T07:57:08.098Z,5.22
2023-05-06T07:58:11.696Z,5.26
2023-05-06T07:59:15.877Z,5.36
2023-05-06T08:00:19.430Z,5.39
2023-05-06T08:01:23.042Z,5.45
2023-05-06T08:02:25.978Z,5.48
2023-05-06T08:03:30.230Z,5.52
2023-05-06T08:04:32.996Z,5.53
2023-05-06T08:05:36.823Z,5.58
2023-05-06T08:06:39.233Z,5.58
2023-05-06T08:07:44.036Z,5.54
2023-05-06T08:08:47.632Z,5.57
2023-05-06T08:09:51.582Z,5.55
2023-05-06T08:10:54.423Z,5.64
2023-05-06T08:11:58.599Z,5.66
2023-05-06T08:13:03.309Z,5.68
2023-05-06T08:14:07.005Z,5.75
2023-05-06T08:15:10.707Z,5.78
2023-05-06T08:16:14.656Z,5.80
2023-05-06T08:17:17.649Z,5.83
2023-05-06T08:18:23.191Z,5.84
2023-05-06T08:19:29.425Z,5.86
2023-05-06T08:20:33.311Z,5.89
2023-05-06T08:21:36.275Z,5.87
2023-05-06T08:22:40.882Z,5.90
2023-05-06T08:23:43.603Z,5.93
2023-05-06T08:24:47.367Z,5.91
2023-05-06T08:25:50.439Z,5.90
2023-05-06T08:26:57.380Z,5.79
2023-05-06T08:28:00.336Z,5.93
2023-05-06T08:29:05.526Z,5.93
2023-05-06T08:30:09.987Z,6.00
2023-05-06T08:31:14.130Z,6.04
2023-05-06T08:32:17.311Z,5.91
2023-05-06T08:33:21.560Z,5.88
2023-05-06T08:34:24.763Z,5.92
2023-05-06T08:35:28.609Z,6.08
2023-05-06T08:36:31.517Z,6.05
2023-05-06T08:37:36.034Z,6.16
2023-05-06T08:38:38.750Z,6.11
2023-05-06T08:39:42.586Z,6.21
2023-05-06T08:40:45.772Z,6.10
2023-05-06T08:41:52.539Z,6.24
2023-05-06T08:42:57.973Z,6.18
2023-05-06T08:44:06.895Z,6.32
2023-05-06T08:45:11.786Z,6.20
2023-05-06T08:46:15.917Z,6.38
2023-05-06T08:47:19.415Z,6.15
2023-05-06T08:48:23.364Z,6.15
2023-05-06T08:49:26.440Z,6.28
2023-05-06T08:50:30.542Z,6.34
2023-05-06T08:51:35.559Z,6.47
2023-05-06T08:52:39.954Z,6.57
2023-05-06T08:53:47.823Z,6.62
2023-05-06T08:54:58.155Z,6.74
2023-05-06T08:56:04.345Z,6.82
2023-05-06T08:57:12.162Z,6.93
2023-05-06T08:58:17.640Z,7.06
2023-05-06T08:59:27.035Z,7.12
2023-05-06T09:00:34.954Z,7.16
2023-05-06T09:01:38.144Z,-142.96
2023-05-06T09:02:43.546Z,-142.96
2023-05-06T09:03:48.571Z,-142.96
2023-05-06T09:04:54.799Z,-142.96
2023-05-06T09:05:58.392Z,-142.96
2023-05-06T09:07:02.088Z,-142.96
2023-05-06T09:08:05.168Z,-142.96
2023-05-06T09:09:09.070Z,-142.96
2023-05-06T09:10:14.542Z,-142.96
2023-05-06T09:11:29.587Z,-142.96
2023-05-06T09:13:01.511Z,-142.96
2023-05-06T09:14:10.234Z,-142.96
2023-05-06T09:15:15.831Z,-142.96
2023-05-06T09:16:29.068Z,-142.96
2023-05-06T09:17:34.621Z,-142.96
2023-05-06T09:18:37.662Z,-142.96
2023-05-06T09:20:35.227Z,7.85
2023-05-06T09:23:45.042Z,8.01
2023-05-06T09:24:56.569Z,8.01
2023-05-06T09:26:04.202Z,8.06
2023-05-06T09:27:08.432Z,7.98
2023-05-06T09:28:15.626Z,7.99
2023-05-06T09:29:18.465Z,7.78
2023-05-06T09:30:27.764Z,7.68
2023-05-06T09:31:47.962Z,7.77
2023-05-06T09:32:55.225Z,7.81
2023-05-06T09:34:02.098Z,7.77
2023-05-06T09:35:06.971Z,7.99
2023-05-06T09:36:13.686Z,8.04
2023-05-06T09:37:17.735Z,8.01
2023-05-06T09:38:22.091Z,8.17
2023-05-06T09:39:29.369Z,7.94
2023-05-06T09:40:32.480Z,7.94
2023-05-06T09:41:37.571Z,7.82
2023-05-06T09:42:40.639Z,7.84
2023-05-06T09:43:49.245Z,7.78
2023-05-06T09:44:55.817Z,7.80
2023-05-06T09:46:00.264Z,7.69
2023-05-06T09:47:04.651Z,7.55
2023-05-06T09:48:09.877Z,7.67
2023-05-06T09:49:15.414Z,7.62
2023-05-06T09:50:19.621Z,7.52
2023-05-06T09:51:23.094Z,7.57
2023-05-06T09:52:28.833Z,7.57
2023-05-06T09:53:33.386Z,7.57
2023-05-06T09:54:39.425Z,7.62
2023-05-06T09:55:43.201Z,7.58
2023-05-06T09:56:49.572Z,7.67
2023-05-06T09:57:54.296Z,7.70
2023-05-06T09:58:58.884Z,7.68
2023-05-06T10:00:07.458Z,7.73
2023-05-06T10:01:32.460Z,7.84
2023-05-06T10:02:41.898Z,7.93
2023-05-06T10:03:47.858Z,7.96
2023-05-06T10:04:51.662Z,8.04
2023-05-06T10:05:57.642Z,8.04
2023-05-06T10:07:04.266Z,8.09
2023-05-06T10:08:10.997Z,8.14
2023-05-06T10:09:14.835Z,8.15
2023-05-06T10:10:21.455Z,8.18
2023-05-06T10:11:26.669Z,8.06
2023-05-06T10:12:31.257Z,8.06
2023-05-06T10:13:35.831Z,8.14
2023-05-06T10:14:40.288Z,8.14
2023-05-06T10:15:45.161Z,8.08
2023-05-06T10:16:51.146Z,8.18
2023-05-06T10:17:54.670Z,8.13
2023-05-06T10:19:00.170Z,8.12
2023-05-06T10:20:05.082Z,8.01
2023-05-06T10:21:18.776Z,8.00
2023-05-06T10:22:34.269Z,7.75
2023-05-06T10:23:44.767Z,7.79
2023-05-06T10:24:56.351Z,7.70
2023-05-06T10:26:08.028Z,7.77
2023-05-06T10:27:13.173Z,7.72
2023-05-06T10:28:25.697Z,7.55
2023-05-06T10:29:37.855Z,7.51
2023-05-06T10:30:42.684Z,7.43
2023-05-06T10:31:50.605Z,7.25
2023-05-06T10:32:57.612Z,7.21
2023-05-06T10:34:04.511Z,7.23
2023-05-06T10:35:13.786Z,7.25
2023-05-06T10:36:20.699Z,7.36
2023-05-06T10:37:27.352Z,7.39
2023-05-06T10:38:34.266Z,7.47
2023-05-06T10:39:42.123Z,7.46
2023-05-06T10:40:46.220Z,7.53
2023-05-06T10:41:52.368Z,7.39
2023-05-06T10:43:21.147Z,7.41
2023-05-06T10:44:58.792Z,7.46
2023-05-06T10:46:03.808Z,7.52
2023-05-06T10:47:09.337Z,7.53
2023-05-06T10:48:12.988Z,7.57
2023-05-06T10:49:21.116Z,7.66
2023-05-06T10:50:29.247Z,7.77
2023-05-06T10:51:34.051Z,7.88
2023-05-06T10:52:45.068Z,7.96
2023-05-06T10:54:13.187Z,8.06
2023-05-06T10:55:31.064Z,8.03
2023-05-06T10:56:37.294Z,8.16
2023-05-06T10:57:43.074Z,8.13
2023-05-06T10:58:49.677Z,8.21
2023-05-06T10:59:55.029Z,8.18
2023-05-06T11:00:59.825Z,8.19
2023-05-06T11:02:09.875Z,8.07
2023-05-06T11:03:15.461Z,7.88
2023-05-06T11:04:20.918Z,7.81
2023-05-06T11:05:26.047Z,7.95
2023-05-06T11:06:38.482Z,7.79
2023-05-06T11:07:42.671Z,7.64
2023-05-06T11:08:57.432Z,7.74
2023-05-06T11:10:04.273Z,7.56
2023-05-06T11:11:41.281Z,7.46
2023-05-06T11:12:49.424Z,7.44
2023-05-06T11:13:54.597Z,7.47
2023-05-06T11:15:21.613Z,7.37
2023-05-06T11:16:49.137Z,7.32
2023-05-06T11:18:53.165Z,-142.96
2023-05-06T11:21:29.556Z,-142.96
2023-05-06T11:22:41.352Z,7.22
2023-05-06T11:24:13.659Z,7.23
2023-05-06T11:25:41.539Z,7.27
2023-05-06T11:26:44.705Z,7.32
2023-05-06T11:27:51.137Z,7.44
2023-05-06T11:28:54.180Z,7.49
2023-05-06T11:29:58.372Z,7.56
2023-05-06T11:31:02.273Z,7.64
2023-05-06T11:32:09.242Z,7.70
2023-05-06T11:33:18.360Z,7.79
2023-05-06T11:34:26.307Z,7.83
2023-05-06T11:35:36.766Z,7.57
2023-05-06T11:36:55.155Z,7.76
2023-05-06T11:37:59.389Z,7.84
2023-05-06T11:39:08.547Z,7.74
2023-05-06T11:40:18.739Z,7.78
2023-05-06T11:41:23.731Z,7.80
2023-05-06T11:42:28.637Z,7.53
2023-05-06T11:43:33.487Z,7.50
2023-05-06T11:44:39.050Z,7.56
2023-05-06T11:45:43.237Z,7.63
2023-05-06T11:46:47.286Z,7.51
2023-05-06T11:47:54.899Z,7.60
2023-05-06T11:48:58.682Z,7.63
2023-05-06T11:50:07.877Z,7.53
2023-05-06T11:51:11.409Z,7.36
2023-05-06T11:52:15.384Z,7.39
2023-05-06T11:53:20.114Z,7.43
2023-05-06T11:54:26.471Z,7.39
2023-05-06T11:55:29.331Z,7.25
2023-05-06T11:56:43.168Z,7.34
2023-05-06T11:57:48.058Z,7.36
2023-05-06T11:58:52.954Z,7.30
2023-05-06T11:59:56.851Z,7.29
2023-05-06T12:01:01.462Z,7.17
2023-05-06T12:02:07.168Z,7.09
2023-05-06T12:03:14.824Z,7.05
2023-05-06T12:04:18.909Z,7.07
2023-05-06T12:05:23.560Z,7.08
2023-05-06T12:07:33.362Z,-142.96
2023-05-06T12:09:37.384Z,-142.96
2023-05-06T12:11:41.616Z,-142.96
2023-05-06T12:13:46.238Z,-142.96
2023-05-06T12:15:51.362Z,-142.96
2023-05-06T12:17:54.488Z,-142.96
2023-05-06T12:19:57.208Z,-142.96
2023-05-06T12:22:15.674Z,-142.96
2023-05-06T12:25:15.844Z,5.82
2023-05-06T12:27:30.465Z,-142.96
2023-05-06T12:30:32.521Z,5.84
2023-05-06T12:31:37.125Z,5.86
2023-05-06T12:32:59.266Z,5.91
2023-05-06T12:34:02.177Z,5.83
2023-05-06T12:35:07.756Z,5.84
2023-05-06T12:36:11.266Z,5.90
2023-05-06T12:37:26.198Z,5.91
2023-05-06T12:38:29.226Z,5.85
2023-05-06T12:40:34.685Z,-142.96
2023-05-06T12:42:38.722Z,-142.96
2023-05-06T12:44:41.788Z,-142.96
2023-05-06T12:47:03.010Z,-142.96
2023-05-06T12:49:05.956Z,-142.96
2023-05-06T12:51:20.811Z,-142.96
2023-05-06T12:53:32.659Z,-142.96
2023-05-06T13:03:06.762Z,-142.96
2023-05-06T13:05:10.134Z,-142.96
2023-05-06T13:07:12.836Z,-142.96
2023-05-06T13:08:35.024Z,6.38
2023-05-06T13:09:46.990Z,6.41
2023-05-06T13:10:49.954Z,6.33
2023-05-06T13:11:54.000Z,6.31
2023-05-06T13:12:57.107Z,6.34
2023-05-06T13:14:01.566Z,6.38
2023-05-06T13:15:06.496Z,6.24
2023-05-06T13:16:10.283Z,6.29
2023-05-06T13:17:14.904Z,6.30
2023-05-06T13:18:17.677Z,6.31
2023-05-06T13:19:32.526Z,6.28
2023-05-06T13:20:36.868Z,6.31
2023-05-06T13:21:41.784Z,6.36
2023-05-06T13:22:54.188Z,6.34
2023-05-06T13:23:59.636Z,6.31
2023-05-06T13:25:04.287Z,6.41
2023-05-06T13:26:08.827Z,6.40
2023-05-06T13:27:12.719Z,6.41
2023-05-06T13:28:15.184Z,6.47
2023-05-06T13:29:18.680Z,6.46
2023-05-06T13:30:21.753Z,6.48
2023-05-06T13:31:26.354Z,6.48
2023-05-06T13:32:30.605Z,6.57
2023-05-06T13:33:34.532Z,6.55
2023-05-06T13:34:38.526Z,6.49
2023-05-06T13:35:41.539Z,6.58
2023-05-06T13:36:46.916Z,6.59
2023-05-06T13:37:49.699Z,6.63
2023-05-06T13:38:53.601Z,6.68
2023-05-06T13:39:56.595Z,6.65
2023-05-06T13:41:02.126Z,6.58
2023-05-06T13:42:07.490Z,6.64
2023-05-06T13:43:11.720Z,6.71
2023-05-06T13:44:15.623Z,6.80
2023-05-06T13:45:18.387Z,6.78
2023-05-06T13:46:23.513Z,6.90
2023-05-06T13:47:27.129Z,6.86
2023-05-06T13:48:30.883Z,6.97
2023-05-06T13:49:34.957Z,6.90
2023-05-06T13:50:37.969Z,6.88
2023-05-06T13:51:41.846Z,6.90
2023-05-06T13:52:45.152Z,7.03
2023-05-06T13:53:48.939Z,6.90
2023-05-06T13:54:51.827Z,6.89
2023-05-06T13:55:56.031Z,6.86
2023-05-06T13:57:01.768Z,6.89
2023-05-06T13:58:07.055Z,6.95
2023-05-06T13:59:12.025Z,6.95
2023-05-06T14:00:15.943Z,6.99
2023-05-06T14:01:19.922Z,7.10
2023-05-06T14:02:26.187Z,7.18
2023-05-06T14:03:30.330Z,7.28
2023-05-06T14:04:33.009Z,7.39
2023-05-06T14:05:37.273Z,7.48
2023-05-06T14:06:41.171Z,7.54
2023-05-06T14:07:44.294Z,7.61
2023-05-06T14:08:49.630Z,7.80
2023-05-06T14:09:52.538Z,7.91
2023-05-06T14:10:57.089Z,7.84
2023-05-06T14:12:03.080Z,7.89
2023-05-06T14:13:07.270Z,8.00
2023-05-06T14:14:11.458Z,7.93
2023-05-06T14:15:15.335Z,7.81
2023-05-06T14:16:19.572Z,7.72
2023-05-06T14:17:22.392Z,7.76
2023-05-06T14:18:27.331Z,7.76
2023-05-06T14:19:30.427Z,7.76
2023-05-06T14:20:34.615Z,7.70
2023-05-06T14:21:37.449Z,7.69
2023-05-06T14:22:42.952Z,7.67
2023-05-06T14:23:46.936Z,7.62
2023-05-06T14:24:49.848Z,7.62
2023-05-06T14:25:53.830Z,7.55
2023-05-06T14:26:57.206Z,7.59
2023-05-06T14:28:02.596Z,7.43
2023-05-06T14:29:05.564Z,7.47
2023-05-06T14:30:10.257Z,7.47
2023-05-06T14:31:13.241Z,7.43
2023-05-06T14:32:17.345Z,7.41
2023-05-06T14:33:20.552Z,7.47
2023-05-06T14:34:24.799Z,7.50
2023-05-06T14:35:30.182Z,7.46
2023-05-06T14:36:34.113Z,7.48
2023-05-06T14:37:38.108Z,7.51
2023-05-06T14:38:42.107Z,7.50
2023-05-06T14:39:44.937Z,7.47
2023-05-06T14:40:48.859Z,7.44
2023-05-06T14:41:51.678Z,7.44
2023-05-06T14:42:55.444Z,7.49
2023-05-06T14:43:59.939Z,7.41
2023-05-06T14:45:04.259Z,7.41
2023-05-06T14:46:08.154Z,7.40
2023-05-06T14:47:12.216Z,7.37
2023-05-06T14:48:16.301Z,7.33
2023-05-06T14:49:19.059Z,7.34
2023-05-06T14:50:23.544Z,7.30
2023-05-06T14:51:26.216Z,7.30
2023-05-06T14:52:30.095Z,7.23
2023-05-06T14:53:33.146Z,7.22
2023-05-06T14:54:42.394Z,7.22
2023-05-06T14:55:46.751Z,7.24
2023-05-06T14:56:49.871Z,7.24
2023-05-06T14:57:53.738Z,7.24
2023-05-06T14:58:57.666Z,7.19
2023-05-06T15:00:03.760Z,7.18
2023-05-06T15:01:10.005Z,7.19
2023-05-06T15:02:12.768Z,7.13
2023-05-06T15:03:16.925Z,7.17
2023-05-06T15:04:19.721Z,7.18
2023-05-06T15:05:23.672Z,7.10
2023-05-06T15:06:26.658Z,7.13
2023-05-06T15:07:30.687Z,7.01
2023-05-06T15:08:33.589Z,7.10
2023-05-06T15:09:39.758Z,7.09
2023-05-06T15:10:42.555Z,7.08
2023-05-06T15:11:47.065Z,7.02
2023-05-06T15:12:50.956Z,7.00
2023-05-06T15:13:53.855Z,7.03
2023-05-06T15:14:57.752Z,7.01
2023-05-06T15:16:03.523Z,6.98
2023-05-06T15:17:06.620Z,6.99
2023-05-06T15:18:10.870Z,7.00
2023-05-06T15:19:13.692Z,6.97
2023-05-06T15:20:17.676Z,7.00
2023-05-06T15:21:20.997Z,7.00
2023-05-06T15:22:25.063Z,6.99
2023-05-06T15:23:27.859Z,6.99
2023-05-06T15:24:32.095Z,6.97
2023-05-06T15:25:36.534Z,6.96
2023-05-06T15:26:40.844Z,6.93
2023-05-06T15:27:43.677Z,6.88
2023-05-06T15:28:47.681Z,6.88
2023-05-06T15:29:50.080Z,6.88
2023-05-06T15:30:53.734Z,6.88
2023-05-06T15:31:58.200Z,6.81
2023-05-06T15:33:03.259Z,6.84
2023-05-06T15:34:06.359Z,6.82
2023-05-06T15:35:11.095Z,6.78
2023-05-06T15:36:14.066Z,6.76
2023-05-06T15:37:19.503Z,6.72
2023-05-06T15:38:22.413Z,6.75
2023-05-06T15:39:26.333Z,6.69
2023-05-06T15:40:28.848Z,6.70
2023-05-06T15:41:34.208Z,6.70
2023-05-06T15:42:39.353Z,6.67
2023-05-06T15:43:42.180Z,6.68
2023-05-06T15:44:46.639Z,6.66
2023-05-06T15:45:49.503Z,6.65
2023-05-06T15:46:53.365Z,6.63
2023-05-06T15:47:57.874Z,6.60
2023-05-06T15:49:29.503Z,6.59
2023-05-06T15:51:34.511Z,6.57
2023-05-06T15:52:38.444Z,6.49
2023-05-06T15:53:41.765Z,6.49
2023-05-06T15:54:49.742Z,6.41
2023-05-06T15:55:57.316Z,6.45
2023-05-06T15:57:07.896Z,6.39
2023-05-06T15:58:10.905Z,6.39
2023-05-06T15:59:14.899Z,6.38
2023-05-06T16:00:18.298Z,6.37
2023-05-06T16:01:37.655Z,6.33
2023-05-06T16:02:46.779Z,6.29
2023-05-06T16:03:51.317Z,6.23
2023-05-06T16:04:56.143Z,6.20
2023-05-06T16:06:00.307Z,6.18
2023-05-06T16:07:04.813Z,6.18
2023-05-06T16:08:07.671Z,6.16
2023-05-06T16:09:12.173Z,6.11
2023-05-06T16:10:14.947Z,6.09
2023-05-06T16:11:19.280Z,6.08
2023-05-06T16:12:22.236Z,6.08
2023-05-06T16:13:26.404Z,6.06
2023-05-06T16:14:29.344Z,6.02